createdAt,value
2019-04-29T00:02:21.698Z,92.57
2019-04-29T00:07:18.019Z,92.93
2019-04-29T00:12:16.415Z,93.11
2019-04-29T00:17:14.423Z,93.09
2019-04-29T00:22:10.974Z,92.59
2019-04-29T00:27:07.054Z,92.78
2019-04-29T00:32:04.188Z,92.95
2019-04-29T00:37:08.218Z,93.13
2019-04-29T00:42:15.002Z,93.27
2019-04-29T00:47:11.602Z,93.37
2019-04-29T00:52:07.824Z,93.47
2019-04-29T00:57:04.445Z,93.57
2019-04-29T01:02:00.726Z,93.69
2019-04-29T01:06:57.087Z,93.68
2019-04-29T01:11:53.424Z,93.70
2019-04-29T01:16:49.595Z,93.63
2019-04-29T01:21:46.013Z,93.66
2019-04-29T01:26:46.690Z,93.79
2019-04-29T01:31:42.877Z,93.07
2019-04-29T01:36:41.245Z,92.17
2019-04-29T01:41:54.423Z,92.72
2019-04-29T01:46:51.045Z,90.87
2019-04-29T01:51:47.044Z,91.76
2019-04-29T01:56:43.147Z,92.20
2019-04-29T02:01:39.264Z,92.71
2019-04-29T02:06:35.546Z,93.02
2019-04-29T02:11:31.585Z,93.41
2019-04-29T02:16:28.026Z,93.61
2019-04-29T02:21:24.408Z,93.15
2019-04-29T02:26:20.664Z,93.17
2019-04-29T02:31:35.233Z,93.53
2019-04-29T02:36:31.377Z,93.28
2019-04-29T02:41:29.343Z,91.22
2019-04-29T02:46:25.533Z,91.17
2019-04-29T02:51:40.800Z,92.05
2019-04-29T02:56:37.404Z,92.34
2019-04-29T03:01:44.519Z,92.95
2019-04-29T03:06:40.963Z,93.42
2019-04-29T03:11:37.293Z,93.42
2019-04-29T03:16:33.576Z,92.03
2019-04-29T03:21:37.333Z,92.71
2019-04-29T03:26:33.826Z,93.11
2019-04-29T03:31:29.956Z,93.43
2019-04-29T03:36:26.109Z,93.72
2019-04-29T03:41:22.477Z,93.99
2019-04-29T03:46:18.510Z,93.67
2019-04-29T03:51:15.141Z,93.72
2019-04-29T03:56:11.346Z,93.96
2019-04-29T04:01:21.069Z,94.10
2019-04-29T04:06:19.144Z,94.27
2019-04-29T04:11:15.299Z,94.38
2019-04-29T04:16:13.578Z,94.43
2019-04-29T04:21:10.250Z,94.51
2019-04-29T04:26:06.473Z,92.36
2019-04-29T04:31:06.473Z,91.86
2019-04-29T04:36:00.805Z,92.51
2019-04-29T04:41:00.037Z,92.91
2019-04-29T04:45:56.255Z,93.20
2019-04-29T04:50:53.758Z,93.35
2019-04-29T04:55:51.751Z,93.57
2019-04-29T05:00:47.986Z,93.79
2019-04-29T05:05:44.217Z,92.70
2019-04-29T05:10:40.417Z,92.71
2019-04-29T05:15:36.829Z,92.75
2019-04-29T05:20:37.599Z,92.37
2019-04-29T05:25:33.993Z,90.03
2019-04-29T05:30:30.205Z,86.39
2019-04-29T05:35:31.571Z,85.89
2019-04-29T05:40:41.652Z,82.61
2019-04-29T05:45:46.161Z,82.26
2019-04-29T05:50:47.583Z,82.08
2019-04-29T05:55:41.872Z,82.12
2019-04-29T06:00:39.326Z,82.79
2019-04-29T06:05:35.369Z,84.41
2019-04-29T06:10:31.494Z,84.94
2019-04-29T06:15:27.693Z,84.73
2019-04-29T06:20:50.219Z,83.56
2019-04-29T06:25:46.374Z,82.14
2019-04-29T06:30:45.249Z,81.21
2019-04-29T06:35:43.309Z,82.53
2019-04-29T06:40:38.216Z,83.17
2019-04-29T06:45:34.353Z,84.15
2019-04-29T06:50:38.076Z,84.38
2019-04-29T06:55:34.253Z,81.98
2019-04-29T07:00:30.210Z,84.33
2019-04-29T07:05:26.369Z,85.46
2019-04-29T07:10:26.874Z,84.17
2019-04-29T07:15:20.740Z,82.51
2019-04-29T07:20:18.443Z,80.03
2019-04-29T07:25:14.830Z,79.49
2019-04-29T07:30:10.902Z,78.81
2019-04-29T07:35:09.921Z,76.88
2019-04-29T07:40:08.053Z,77.32
2019-04-29T07:45:19.477Z,77.60
2019-04-29T07:50:17.401Z,78.28
2019-04-29T07:55:13.578Z,78.86
2019-04-29T08:00:13.046Z,81.96
2019-04-29T08:05:10.221Z,79.93
2019-04-29T08:10:22.803Z,80.24
2019-04-29T08:15:07.738Z,78.45
2019-04-29T08:20:05.158Z,76.66
2019-04-29T08:25:04.222Z,76.32
2019-04-29T08:30:00.335Z,77.22
2019-04-29T08:34:58.315Z,73.88
2019-04-29T08:40:14.714Z,74.62
2019-04-29T08:50:08.379Z,70.68
2019-04-29T08:55:04.817Z,70.54
2019-04-29T09:00:00.751Z,70.81
2019-04-29T09:04:56.679Z,70.39
2019-04-29T09:09:56.004Z,69.90
2019-04-29T09:14:50.420Z,69.29
2019-04-29T09:19:46.338Z,68.64
2019-04-29T09:24:48.247Z,69.88
2019-04-29T09:29:41.981Z,68.54
2019-04-29T09:34:37.904Z,67.81
2019-04-29T09:39:42.819Z,68.11
2019-04-29T09:44:44.995Z,68.56
2019-04-29T09:49:41.042Z,68.12
2019-04-29T09:54:36.954Z,69.43
2019-04-29T09:59:40.820Z,68.82
2019-04-29T10:04:38.753Z,69.35
2019-04-29T10:09:34.685Z,67.96
2019-04-29T10:14:30.704Z,65.22
2019-04-29T10:19:31.382Z,65.06
2019-04-29T10:24:27.423Z,65.52
2019-04-29T10:29:28.043Z,64.08
2019-04-29T10:34:26.891Z,62.72
2019-04-29T10:39:24.287Z,61.92
2019-04-29T10:44:22.146Z,63.30
2019-04-29T10:49:22.732Z,62.03
2019-04-29T10:54:18.649Z,62.50
2019-04-29T10:59:14.674Z,60.73
2019-04-29T11:04:10.910Z,59.41
2019-04-29T11:09:14.323Z,61.26
2019-04-29T11:14:10.720Z,60.07
2019-04-29T11:19:06.641Z,61.34
2019-04-29T11:24:04.647Z,64.14
2019-04-29T11:29:00.825Z,63.19
2019-04-29T11:34:11.653Z,63.54
2019-04-29T11:39:09.115Z,63.42
2019-04-29T11:44:06.545Z,61.91
2019-04-29T11:49:04.461Z,62.71
2019-04-29T11:54:01.339Z,63.28
2019-04-29T11:58:59.286Z,65.34
2019-04-29T12:03:58.333Z,67.51
2019-04-29T12:08:55.224Z,69.47
2019-04-29T12:14:08.284Z,71.56
2019-04-29T12:24:23.477Z,74.87
2019-04-29T12:29:19.665Z,74.61
2019-04-29T12:34:30.451Z,75.08
2019-04-29T12:39:42.808Z,75.29
2019-04-29T12:44:34.956Z,77.23
2019-04-29T12:49:27.098Z,77.04
2019-04-29T12:54:24.017Z,78.01
2019-04-29T12:59:30.657Z,79.14
2019-04-29T13:04:45.012Z,79.47
2019-04-29T13:09:43.956Z,82.31
2019-04-29T13:14:42.621Z,81.18
2019-04-29T13:20:07.404Z,82.82
2019-04-29T13:25:05.504Z,84.59
2019-04-29T13:30:15.189Z,84.44
2019-04-29T13:35:12.334Z,85.04
2019-04-29T13:40:09.386Z,84.80
2019-04-29T13:45:12.517Z,86.16
2019-04-29T13:50:18.929Z,86.61
2019-04-29T13:55:17.705Z,87.03
2019-04-29T14:00:14.306Z,88.04
2019-04-29T14:05:15.146Z,88.46
2019-04-29T14:10:14.974Z,89.45
2019-04-29T14:15:11.270Z,89.74
2019-04-29T14:20:10.895Z,89.76
2019-04-29T14:25:08.192Z,90.23
2019-04-29T14:30:09.127Z,90.65
2019-04-29T14:35:19.693Z,90.81
2019-04-29T14:40:15.745Z,91.00
2019-04-29T14:45:30.501Z,90.74
2019-04-29T14:50:28.015Z,89.97
2019-04-29T14:55:25.210Z,89.66
2019-04-29T15:00:30.033Z,89.82
2019-04-29T15:05:28.228Z,89.06
2019-04-29T15:10:26.697Z,88.80
2019-04-29T15:15:40.557Z,89.32
2019-04-29T15:20:45.132Z,89.44
2019-04-29T15:25:41.177Z,88.46
2019-04-29T15:30:38.633Z,89.06
2019-04-29T15:35:34.898Z,88.72
2019-04-29T15:40:30.853Z,87.85
2019-04-29T15:45:28.102Z,87.67
2019-04-29T15:50:32.665Z,86.96
2019-04-29T15:55:28.510Z,86.86
2019-04-29T16:00:25.507Z,86.35
2019-04-29T16:05:56.109Z,86.35
2019-04-29T16:10:41.679Z,85.53
2019-04-29T16:15:37.584Z,85.71
2019-04-29T16:20:39.912Z,85.46
2019-04-29T16:25:40.500Z,84.83
2019-04-29T16:30:34.022Z,85.04
2019-04-29T16:35:34.635Z,85.07
2019-04-29T16:40:33.781Z,85.14
2019-04-29T16:45:30.518Z,84.61
2019-04-29T16:50:38.134Z,84.69
2019-04-29T16:55:35.872Z,85.46
2019-04-29T17:00:35.104Z,85.11
2019-04-29T17:05:31.145Z,85.34
2019-04-29T17:10:45.944Z,85.26
2019-04-29T17:15:44.487Z,85.41
2019-04-29T17:20:42.384Z,85.43
2019-04-29T17:25:40.313Z,85.73
2019-04-29T17:30:58.474Z,85.88
2019-04-29T17:35:58.411Z,85.56
2019-04-29T17:40:54.448Z,85.73
2019-04-29T17:46:01.409Z,84.99
2019-04-29T17:51:05.356Z,84.99
2019-04-29T17:56:21.035Z,84.89
2019-04-29T18:01:19.246Z,84.66
2019-04-29T18:06:24.313Z,84.88
2019-04-29T18:11:21.234Z,85.31
2019-04-29T18:16:25.752Z,85.57
2019-04-29T18:21:28.347Z,85.72
2019-04-29T18:26:26.186Z,86.09
2019-04-29T18:31:22.252Z,86.10
2019-04-29T18:36:24.130Z,86.32
2019-04-29T18:41:24.634Z,86.54
2019-04-29T18:46:19.616Z,86.44
2019-04-29T18:51:25.660Z,86.74
2019-04-29T18:56:21.308Z,86.75
2019-04-29T19:01:24.053Z,86.27
2019-04-29T19:06:21.371Z,86.69
2019-04-29T19:11:29.913Z,86.94
2019-04-29T19:16:21.608Z,86.70
2019-04-29T19:21:19.293Z,86.76
2019-04-29T19:26:18.126Z,86.56
2019-04-29T19:31:17.536Z,86.39
2019-04-29T19:36:20.178Z,86.61
2019-04-29T19:41:16.381Z,86.26
2019-04-29T19:46:21.857Z,86.21
2019-04-29T19:51:17.850Z,86.10
2019-04-29T19:56:20.894Z,86.18
2019-04-29T20:01:18.723Z,86.14
2019-04-29T20:06:21.433Z,86.08
2019-04-29T20:11:15.934Z,86.39
2019-04-29T20:16:42.762Z,86.47
2019-04-29T20:21:37.988Z,86.25
2019-04-29T20:26:35.896Z,86.34
2019-04-29T20:31:37.360Z,86.67
2019-04-29T20:36:39.456Z,86.29
2019-04-29T20:41:40.584Z,87.03
2019-04-29T20:46:40.154Z,87.45
2019-04-29T20:51:32.219Z,88.19
2019-04-29T20:56:28.844Z,88.31
2019-04-29T21:01:25.460Z,88.95
2019-04-29T21:06:21.795Z,89.23
2019-04-29T21:11:36.737Z,89.53
2019-04-29T21:16:34.635Z,90.19
2019-04-29T21:21:30.559Z,90.12
2019-04-29T21:26:26.583Z,90.41
2019-04-29T21:31:22.531Z,90.73
2019-04-29T21:36:26.565Z,91.23
2019-04-29T21:41:29.167Z,91.29
2019-04-29T21:46:29.392Z,90.83
2019-04-29T21:51:25.520Z,90.78
2019-04-29T21:56:21.471Z,90.74
2019-04-29T22:01:18.698Z,90.57
2019-04-29T22:06:14.826Z,90.16
2019-04-29T22:11:10.857Z,90.03
2019-04-29T22:16:07.082Z,89.83
2019-04-29T22:21:06.593Z,89.84
2019-04-29T22:26:01.824Z,89.95
2019-04-29T22:30:57.863Z,89.97
2019-04-29T22:35:55.475Z,89.89
2019-04-29T22:40:52.754Z,89.81
2019-04-29T22:45:48.682Z,90.00
2019-04-29T22:50:47.397Z,89.70
2019-04-29T22:55:45.238Z,90.01
2019-04-29T23:00:41.265Z,90.08
2019-04-29T23:05:37.896Z,90.24
2019-04-29T23:10:35.643Z,90.37
2019-04-29T23:15:31.771Z,90.39
2019-04-29T23:20:37.208Z,90.49
2019-04-29T23:25:35.480Z,90.42
2019-04-29T23:30:31.482Z,90.41
2019-04-29T23:35:27.459Z,90.00
2019-04-29T23:40:23.384Z,89.82
2019-04-29T23:45:21.138Z,89.77
2019-04-29T23:50:20.078Z,89.42
2019-04-29T23:55:20.500Z,88.90
